Wetterdaten: Woche 24.10.05 - 30.10.05 (KW43)
Datum Zeit Temperatur Luftfeuchte Luftdruck Niederschlag Windrichtung Wind
24.10.2005 00:00 9,9 C 98 % 1022 hPa 0,0 l/m N 0,0 km/h (0 Bft)
24.10.2005 01:00 9,2 C 98 % 1022 hPa 0,0 l/m S-SO 1,1 km/h (0 Bft)
24.10.2005 02:00 8,8 C 99 % 1022 hPa 0,0 l/m S 1,9 km/h (1 Bft)
24.10.2005 03:00 8,9 C 100 % 1022 hPa 0,0 l/m N 0,0 km/h (0 Bft)
24.10.2005 04:00 8,8 C 100 % 1022 hPa 0,0 l/m N 0,0 km/h (0 Bft)
24.10.2005 05:00 8,5 C 100 % 1021 hPa 0,0 l/m N 0,0 km/h (0 Bft)
24.10.2005 06:00 7,9 C 100 % 1022 hPa 0,0 l/m N 0,0 km/h (0 Bft)
24.10.2005 07:00 8,1 C 100 % 1022 hPa 0,0 l/m S 0,5 km/h (0 Bft)
24.10.2005 08:00 8,5 C 100 % 1022 hPa 0,0 l/m S 6,9 km/h (2 Bft)
24.10.2005 09:00 9,3 C 100 % 1022 hPa 0,0 l/m S-SW 11,8 km/h (2 Bft)
24.10.2005 10:00 9,8 C 100 % 1022 hPa 0,0 l/m S-SW 12,1 km/h (2 Bft)
24.10.2005 11:00 10,7 C 100 % 1022 hPa 0,0 l/m S-SW 11,3 km/h (2 Bft)
24.10.2005 12:00 12,3 C 99 % 1022 hPa 0,0 l/m S 12,3 km/h (3 Bft)
24.10.2005 13:00 14,2 C 81 % 1022 hPa 0,0 l/m S 11,1 km/h (2 Bft)
24.10.2005 14:00 15,6 C 68 % 1021 hPa 0,0 l/m S 12,8 km/h (3 Bft)
24.10.2005 15:00 15,9 C 62 % 1021 hPa 0,0 l/m S-SW 13,6 km/h (3 Bft)
24.10.2005 16:00 15,1 C 65 % 1021 hPa 0,0 l/m W-SW 9,5 km/h (2 Bft)
24.10.2005 17:00 14,3 C 70 % 1020 hPa 0,0 l/m W-SW 5,6 km/h (1 Bft)
24.10.2005 18:00 13,0 C 77 % 1020 hPa 0,0 l/m S-SW 2,8 km/h (1 Bft)
24.10.2005 19:00 11,9 C 83 % 1021 hPa 0,0 l/m N 0,0 km/h (0 Bft)
24.10.2005 20:00 11,0 C 89 % 1021 hPa 0,0 l/m S-SW 4,7 km/h (1 Bft)
24.10.2005 21:00 9,9 C 95 % 1020 hPa 0,0 l/m S 7,8 km/h (2 Bft)
24.10.2005 22:00 10,1 C 98 % 1020 hPa 0,0 l/m S 4,9 km/h (1 Bft)
24.10.2005 23:00 9,4 C 98 % 1020 hPa 0,0 l/m S-SO 0,8 km/h (0 Bft)
25.10.2005 00:00 9,0 C 99 % 1020 hPa 0,0 l/m O-SO 4,5 km/h (1 Bft)
25.10.2005 01:00 8,9 C 100 % 1019 hPa 0,0 l/m S-SO 2,9 km/h (1 Bft)
25.10.2005 02:00 8,7 C 100 % 1019 hPa 0,0 l/m O-NO 1,5 km/h (1 Bft)
25.10.2005 03:00 8,7 C 100 % 1019 hPa 0,0 l/m S 1,3 km/h (1 Bft)
25.10.2005 04:00 8,2 C 100 % 1019 hPa 0,0 l/m O-SO 0,4 km/h (0 Bft)
25.10.2005 05:00 7,7 C 100 % 1019 hPa 0,0 l/m S-SO 3,6 km/h (1 Bft)
25.10.2005 06:00 8,0 C 100 % 1019 hPa 0,0 l/m S-SO 3,3 km/h (1 Bft)
25.10.2005 07:00 8,1 C 100 % 1018 hPa 0,0 l/m O-SO 1,0 km/h (0 Bft)
25.10.2005 08:00 8,0 C 100 % 1018 hPa 0,0 l/m N 0,0 km/h (0 Bft)
25.10.2005 09:00 8,3 C 100 % 1018 hPa 0,0 l/m S 5,1 km/h (1 Bft)
25.10.2005 10:00 9,6 C 100 % 1018 hPa 0,0 l/m S 10,5 km/h (2 Bft)
25.10.2005 11:00 12,8 C 88 % 1018 hPa 0,0 l/m S-SW 14,1 km/h (3 Bft)
25.10.2005 12:00 14,1 C 66 % 1018 hPa 0,0 l/m S 14,0 km/h (3 Bft)
25.10.2005 13:00 14,7 C 66 % 1017 hPa 0,0 l/m SW 14,6 km/h (3 Bft)
25.10.2005 14:00 16,3 C 52 % 1017 hPa 0,0 l/m S-SW 19,5 km/h (3 Bft)
25.10.2005 15:00 16,7 C 54 % 1017 hPa 0,0 l/m S 18,4 km/h (3 Bft)
25.10.2005 16:00 15,5 C 60 % 1017 hPa 0,0 l/m S-SW 16,1 km/h (3 Bft)
25.10.2005 17:00 15,1 C 62 % 1018 hPa 0,0 l/m S-SW 14,2 km/h (3 Bft)
25.10.2005 18:00 14,1 C 66 % 1018 hPa 0,0 l/m S-SW 10,2 km/h (2 Bft)
25.10.2005 19:00 13,7 C 68 % 1018 hPa 0,0 l/m S-SW 12,6 km/h (3 Bft)
25.10.2005 20:00 13,9 C 65 % 1019 hPa 0,0 l/m S-SW 15,0 km/h (3 Bft)
25.10.2005 21:00 13,9 C 64 % 1019 hPa 0,0 l/m S-SW 15,3 km/h (3 Bft)
25.10.2005 22:00 13,5 C 67 % 1019 hPa 0,0 l/m S-SW 15,0 km/h (3 Bft)
25.10.2005 23:00 13,7 C 66 % 1019 hPa 0,0 l/m S-SW 13,4 km/h (3 Bft)
26.10.2005 00:00 13,9 C 64 % 1019 hPa 0,0 l/m S-SW 14,5 km/h (3 Bft)
26.10.2005 01:00 13,2 C 68 % 1019 hPa 0,0 l/m S-SW 12,4 km/h (3 Bft)
26.10.2005 02:00 12,4 C 73 % 1019 hPa 0,0 l/m S-SW 12,8 km/h (3 Bft)
26.10.2005 03:00 12,0 C 74 % 1019 hPa 0,0 l/m S-SW 11,9 km/h (2 Bft)
26.10.2005 04:00 12,1 C 75 % 1020 hPa 0,0 l/m S-SW 15,1 km/h (3 Bft)
26.10.2005 05:00 12,6 C 74 % 1020 hPa 0,0 l/m S-SW 14,3 km/h (3 Bft)
26.10.2005 06:00 12,0 C 78 % 1021 hPa 0,0 l/m S-SW 8,2 km/h (2 Bft)
26.10.2005 07:00 12,2 C 80 % 1021 hPa 0,0 l/m S-SW 3,1 km/h (1 Bft)
26.10.2005 08:00 12,5 C 78 % 1022 hPa 0,0 l/m S-SW 7,9 km/h (2 Bft)
26.10.2005 09:00 13,3 C 73 % 1023 hPa 0,0 l/m S-SW 11,3 km/h (2 Bft)
26.10.2005 10:00 13,8 C 72 % 1023 hPa 0,0 l/m S-SW 13,1 km/h (3 Bft)
26.10.2005 11:00 14,5 C 68 % 1023 hPa 0,0 l/m S-SW 12,5 km/h (3 Bft)
26.10.2005 12:00 15,4 C 63 % 1023 hPa 0,0 l/m S-SW 15,4 km/h (3 Bft)
26.10.2005 13:00 17,6 C 55 % 1023 hPa 0,0 l/m SW 13,4 km/h (3 Bft)
26.10.2005 14:00 19,7 C 47 % 1022 hPa 0,0 l/m S 12,4 km/h (3 Bft)
26.10.2005 15:00 19,8 C 48 % 1022 hPa 0,0 l/m W-SW 12,9 km/h (3 Bft)
26.10.2005 16:00 18,6 C 53 % 1022 hPa 0,0 l/m SW 9,1 km/h (2 Bft)
26.10.2005 17:00 17,5 C 58 % 1022 hPa 0,0 l/m W-SW 3,4 km/h (1 Bft)
26.10.2005 18:00 15,3 C 67 % 1023 hPa 0,0 l/m N 0,0 km/h (0 Bft)
26.10.2005 19:00 13,2 C 76 % 1023 hPa 0,0 l/m O 0,3 km/h (0 Bft)
26.10.2005 20:00 11,6 C 82 % 1023 hPa 0,0 l/m N 0,0 km/h (0 Bft)
26.10.2005 21:00 10,4 C 88 % 1023 hPa 0,0 l/m W 0,7 km/h (0 Bft)
26.10.2005 22:00 9,7 C 92 % 1024 hPa 0,0 l/m N 0,0 km/h (0 Bft)
26.10.2005 23:00 9,2 C 93 % 1023 hPa 0,0 l/m N 0,0 km/h (0 Bft)
27.10.2005 00:00 8,6 C 96 % 1023 hPa 0,0 l/m N 0,0 km/h (0 Bft)
27.10.2005 01:00 8,2 C 97 % 1023 hPa 0,0 l/m W-NW 1,1 km/h (0 Bft)
27.10.2005 02:00 8,2 C 98 % 1023 hPa 0,0 l/m W-NW 1,3 km/h (1 Bft)
27.10.2005 03:00 8,0 C 99 % 1022 hPa 0,0 l/m NW 1,5 km/h (1 Bft)
27.10.2005 04:00 8,0 C 100 % 1022 hPa 0,0 l/m NW 5,7 km/h (1 Bft)
27.10.2005 05:00 7,8 C 100 % 1022 hPa 0,0 l/m W-NW 3,1 km/h (1 Bft)
27.10.2005 06:00 7,2 C 100 % 1022 hPa 0,0 l/m NW 5,5 km/h (1 Bft)
27.10.2005 07:00 6,7 C 100 % 1022 hPa 0,0 l/m W-NW 4,9 km/h (1 Bft)
27.10.2005 08:00 6,9 C 100 % 1022 hPa 0,0 l/m NW 10,5 km/h (2 Bft)
27.10.2005 09:00 7,4 C 100 % 1023 hPa 0,0 l/m NW 4,6 km/h (1 Bft)
27.10.2005 10:00 8,7 C 100 % 1023 hPa 0,0 l/m NW 4,2 km/h (1 Bft)
27.10.2005 11:00 11,2 C 97 % 1023 hPa 0,0 l/m O 3,7 km/h (1 Bft)
27.10.2005 12:00 13,4 C 79 % 1023 hPa 0,0 l/m O-NO 3,6 km/h (1 Bft)
27.10.2005 13:00 16,1 C 65 % 1022 hPa 0,0 l/m N 5,5 km/h (1 Bft)
27.10.2005 14:00 18,3 C 54 % 1022 hPa 0,0 l/m N-NO 5,5 km/h (1 Bft)
27.10.2005 15:00 19,0 C 50 % 1021 hPa 0,0 l/m O 2,5 km/h (1 Bft)
27.10.2005 16:00 18,0 C 53 % 1021 hPa 0,0 l/m O-NO 3,6 km/h (1 Bft)
27.10.2005 17:00 16,7 C 61 % 1020 hPa 0,0 l/m N-NO 4,1 km/h (1 Bft)
27.10.2005 18:00 14,1 C 71 % 1020 hPa 0,0 l/m N 0,0 km/h (0 Bft)
27.10.2005 19:00 12,2 C 79 % 1021 hPa 0,0 l/m N 0,0 km/h (0 Bft)
27.10.2005 20:00 10,7 C 84 % 1021 hPa 0,0 l/m N 0,0 km/h (0 Bft)
27.10.2005 21:00 9,7 C 89 % 1021 hPa 0,0 l/m N 0,0 km/h (0 Bft)
27.10.2005 22:00 8,6 C 90 % 1022 hPa 0,0 l/m N 0,0 km/h (0 Bft)
27.10.2005 23:00 7,9 C 93 % 1022 hPa 0,0 l/m N 0,0 km/h (0 Bft)
28.10.2005 00:00 7,0 C 95 % 1022 hPa 0,0 l/m N 0,0 km/h (0 Bft)
28.10.2005 01:00 6,1 C 96 % 1022 hPa 0,0 l/m N 0,0 km/h (0 Bft)
28.10.2005 02:00 5,4 C 96 % 1022 hPa 0,0 l/m N 0,0 km/h (0 Bft)
28.10.2005 03:00 4,6 C 97 % 1022 hPa 0,0 l/m N 0,0 km/h (0 Bft)
28.10.2005 04:00 4,1 C 97 % 1022 hPa 0,0 l/m N 0,0 km/h (0 Bft)
28.10.2005 05:00 3,8 C 98 % 1022 hPa 0,0 l/m N 0,0 km/h (0 Bft)
28.10.2005 06:00 3,5 C 99 % 1022 hPa 0,0 l/m N 0,0 km/h (0 Bft)
28.10.2005 07:00 3,4 C 99 % 1022 hPa 0,0 l/m N 0,0 km/h (0 Bft)
28.10.2005 08:00 3,6 C 100 % 1022 hPa 0,0 l/m N 0,0 km/h (0 Bft)
28.10.2005 09:00 4,5 C 100 % 1022 hPa 0,0 l/m N 0,0 km/h (0 Bft)
28.10.2005 10:00 7,3 C 100 % 1022 hPa 0,0 l/m N 0,0 km/h (0 Bft)
28.10.2005 11:00 10,8 C 96 % 1022 hPa 0,0 l/m S 0,4 km/h (0 Bft)
28.10.2005 12:00 14,1 C 78 % 1022 hPa 0,0 l/m N 0,0 km/h (0 Bft)
28.10.2005 13:00 17,7 C 63 % 1022 hPa 0,0 l/m O 0,6 km/h (0 Bft)
28.10.2005 14:00 19,8 C 53 % 1021 hPa 0,0 l/m W-SW 3,6 km/h (1 Bft)
28.10.2005 15:00 20,7 C 50 % 1021 hPa 0,0 l/m O 6,0 km/h (2 Bft)
28.10.2005 16:00 19,2 C 49 % 1021 hPa 0,0 l/m O-NO 10,4 km/h (2 Bft)
28.10.2005 17:00 17,9 C 57 % 1020 hPa 0,0 l/m N-NO 4,1 km/h (1 Bft)
28.10.2005 18:00 14,9 C 70 % 1020 hPa 0,0 l/m N-NW 2,5 km/h (1 Bft)
28.10.2005 19:00 12,5 C 78 % 1021 hPa 0,0 l/m NW 2,5 km/h (1 Bft)
28.10.2005 20:00 11,0 C 87 % 1021 hPa 0,0 l/m NW 3,2 km/h (1 Bft)
28.10.2005 21:00 9,9 C 92 % 1021 hPa 0,0 l/m N-NO 2,8 km/h (1 Bft)
28.10.2005 22:00 8,4 C 97 % 1021 hPa 0,0 l/m N 3,4 km/h (1 Bft)
28.10.2005 23:00 7,8 C 99 % 1021 hPa 0,0 l/m NW 0,5 km/h (0 Bft)
29.10.2005 00:00 7,8 C 99 % 1021 hPa 0,0 l/m NW 0,0 km/h (0 Bft)
29.10.2005 20:00 10,9 C 91 % 1020 hPa 0,0 l/m NW 9,1 km/h (2 Bft)
29.10.2005 21:00 10,3 C 94 % 1021 hPa 0,0 l/m NW 5,3 km/h (1 Bft)
29.10.2005 22:00 9,9 C 97 % 1021 hPa 0,0 l/m W-SW 2,4 km/h (1 Bft)
29.10.2005 23:00 9,8 C 99 % 1021 hPa 0,0 l/m N-NW 1,3 km/h (1 Bft)
30.10.2005 00:00 9,7 C 100 % 1021 hPa 0,0 l/m O-SO 0,2 km/h (0 Bft)
30.10.2005 01:00 9,5 C 100 % 1021 hPa 0,0 l/m SO 0,5 km/h (0 Bft)
30.10.2005 02:00 9,3 C 100 % 1021 hPa 0,0 l/m W 0,3 km/h (0 Bft)
30.10.2005 03:00 9,1 C 100 % 1021 hPa 0,0 l/m SO 0,0 km/h (0 Bft)
30.10.2005 04:00 7,3 C 100 % 1021 hPa 0,0 l/m N 0,0 km/h (0 Bft)
30.10.2005 05:00 6,4 C 100 % 1021 hPa 0,0 l/m N 0,0 km/h (0 Bft)
30.10.2005 06:00 5,5 C 100 % 1020 hPa 0,0 l/m N 0,0 km/h (0 Bft)
30.10.2005 07:00 4,9 C 100 % 1021 hPa 0,0 l/m N 0,0 km/h (0 Bft)
30.10.2005 08:00 5,7 C 100 % 1021 hPa 0,0 l/m N 1,9 km/h (1 Bft)
30.10.2005 09:00 6,7 C 100 % 1021 hPa 0,0 l/m N-NO 1,3 km/h (1 Bft)
30.10.2005 10:00 8,1 C 100 % 1021 hPa 0,0 l/m N-NO 3,8 km/h (1 Bft)
30.10.2005 11:00 9,7 C 100 % 1021 hPa 0,0 l/m N 3,4 km/h (1 Bft)
30.10.2005 12:00 13,2 C 85 % 1020 hPa 0,0 l/m N 7,0 km/h (2 Bft)
30.10.2005 13:00 15,6 C 65 % 1019 hPa 0,0 l/m N 8,3 km/h (2 Bft)
30.10.2005 14:00 16,0 C 66 % 1019 hPa 0,0 l/m N-NW 9,6 km/h (2 Bft)
30.10.2005 15:00 13,7 C 76 % 1018 hPa 0,0 l/m N 11,3 km/h (2 Bft)
30.10.2005 16:00 11,3 C 88 % 1018 hPa 0,0 l/m N 9,2 km/h (2 Bft)
30.10.2005 17:00 10,1 C 96 % 1019 hPa 0,0 l/m N-NW 9,6 km/h (2 Bft)
30.10.2005 18:00 9,6 C 99 % 1019 hPa 0,0 l/m N-NO 8,3 km/h (2 Bft)
30.10.2005 19:00 9,5 C 100 % 1019 hPa 0,0 l/m N 2,9 km/h (1 Bft)
30.10.2005 20:00 9,3 C 100 % 1019 hPa 0,0 l/m NW 2,4 km/h (1 Bft)
30.10.2005 21:00 9,0 C 100 % 1019 hPa 0,0 l/m N-NW 3,8 km/h (1 Bft)
30.10.2005 22:00 8,9 C 100 % 1019 hPa 0,0 l/m N 0,4 km/h (0 Bft)
30.10.2005 23:00 8,6 C 100 % 1019 hPa 0,0 l/m N 0,0 km/h (0 Bft)
Min-Datum _ 28.10.05 28.10.05 25.10.05 - - 24.10.05
_ Min-Zeit 06:57 15:55 13:01 - - 00:00
Minimum _ 3,3 C 45 % 1017 hPa - - 0,0 km/h (0 Bft)
Max-Datum _ 28.10.05 24.10.05 26.10.05 24.10.05 - 25.10.05
_ Max-Zeit 15:20 02:52 22:45 00:00 - 14:33
Maximum _ 21,0 C 100 % 1024 hPa 0,0 l/m - 39,3 km/h
S-SW (6 Bft)
Durchschnitt _ 11,1 C 85 % 1021 hPa #0,0 l/m S-SW 5,2 km/h (1 Bft)

Durchschnitt Minimum Temp.10,6 C
Durchschnitt Maximum Temp.11,6 C